Time;durP1;ratioP1;P1;durP2;ratioP2;P2;SDS_P1;SDS_P2;PMS_P1;PMS_P2;Temp;Humidity;BMP_temperature;BMP_pressure;BME280_temperature;BME280_humidity;BME280_pressure;Samples;Min_cycle;Max_cycle;Signal;HPM_P1;HPM_P2
2024/02/27 00:02:31;;;;;;;42.13;13.87;;;;;;;;;;6142345;29;20301;-60
2024/02/27 00:05:35;;;;;;;43.87;13.97;;;;;;;;;;6141549;29;20316;-60
2024/02/27 00:08:39;;;;;;;40.87;13.20;;;;;;;;;;6141575;29;20323;-60
2024/02/27 00:11:44;;;;;;;35.47;12.60;;;;;;;;;;6123450;29;20310;-60
2024/02/27 00:14:48;;;;;;;39.30;12.87;;;;;;;;;;6117799;29;20318;-59
2024/02/27 00:17:52;;;;;;;39.70;13.07;;;;;;;;;;6117340;29;20585;-60
2024/02/27 00:20:56;;;;;;;32.57;11.50;;;;;;;;;;6118014;29;20302;-60
2024/02/27 00:24:00;;;;;;;40.23;12.87;;;;;;;;;;6117229;29;20306;-60
2024/02/27 00:27:07;;;;;;;44.30;13.80;;;;;;;;;;6118045;29;20316;-60
2024/02/27 00:30:12;;;;;;;48.40;12.93;;;;;;;;;;6117403;29;20302;-59
2024/02/27 00:33:15;;;;;;;40.40;12.80;;;;;;;;;;6117393;29;20312;-60
2024/02/27 00:36:20;;;;;;;41.27;12.37;;;;;;;;;;6117554;29;20301;-60
2024/02/27 00:39:24;;;;;;;38.67;12.67;;;;;;;;;;6117212;29;20332;-59
2024/02/27 00:42:29;;;;;;;37.93;12.40;;;;;;;;;;6117484;29;20573;-59
2024/02/27 00:45:33;;;;;;;43.17;12.77;;;;;;;;;;6117002;29;20302;-60
2024/02/27 00:48:37;;;;;;;35.80;12.27;;;;;;;;;;6116771;29;20307;-60
2024/02/27 00:51:41;;;;;;;35.50;12.40;;;;;;;;;;6117674;29;20385;-59
2024/02/27 00:54:45;;;;;;;40.83;13.43;;;;;;;;;;6117011;29;20567;-59
2024/02/27 00:57:50;;;;;;;32.83;12.30;;;;;;;;;;6116733;29;20486;-61
2024/02/27 01:00:54;;;;;;;30.80;11.53;;;;;;;;;;6117257;29;20467;-59
2024/02/27 01:03:58;;;;;;;34.00;12.30;;;;;;;;;;6116789;29;20297;-59
2024/02/27 01:07:01;;;;;;;37.90;13.33;;;;;;;;;;6108191;29;20309;-60
2024/02/27 01:10:07;;;;;;;36.20;12.60;;;;;;;;;;6104162;29;20307;-60
2024/02/27 01:13:12;;;;;;;38.17;13.03;;;;;;;;;;6139708;29;20293;-59
2024/02/27 01:16:16;;;;;;;35.93;11.83;;;;;;;;;;6140409;29;20562;-60
2024/02/27 01:19:20;;;;;;;35.93;12.77;;;;;;;;;;6138336;29;20574;-60
2024/02/27 01:22:28;;;;;;;38.90;12.23;;;;;;;;;;6140480;29;20304;-60
2024/02/27 01:25:32;;;;;;;39.20;11.93;;;;;;;;;;6139956;29;20305;-60
2024/02/27 01:28:37;;;;;;;31.87;12.87;;;;;;;;;;6139638;29;20601;-59
2024/02/27 01:31:41;;;;;;;34.90;12.13;;;;;;;;;;6139938;29;20300;-59
2024/02/27 01:34:45;;;;;;;32.73;11.67;;;;;;;;;;6139744;29;20616;-59
2024/02/27 01:37:49;;;;;;;33.33;11.63;;;;;;;;;;6139540;29;20292;-59
2024/02/27 01:40:53;;;;;;;37.13;12.33;;;;;;;;;;6138852;29;20273;-60
2024/02/27 01:43:58;;;;;;;38.20;11.77;;;;;;;;;;6139123;29;20299;-60
2024/02/27 01:47:02;;;;;;;29.50;10.40;;;;;;;;;;6139306;29;20294;-60
2024/02/27 01:50:10;;;;;;;30.83;11.33;;;;;;;;;;6139207;29;20295;-60
2024/02/27 01:53:15;;;;;;;33.70;11.93;;;;;;;;;;6139081;29;20302;-60
2024/02/27 01:56:19;;;;;;;27.80;11.17;;;;;;;;;;6139536;29;20299;-59
2024/02/27 01:59:25;;;;;;;28.63;10.00;;;;;;;;;;6138834;29;20408;-60
2024/02/27 02:02:34;;;;;;;22.80;9.77;;;;;;;;;;6138607;29;20307;-60
2024/02/27 02:05:38;;;;;;;26.50;10.00;;;;;;;;;;6138384;29;20306;-61
2024/02/27 02:08:42;;;;;;;27.00;10.03;;;;;;;;;;6138399;29;20427;-59
2024/02/27 02:11:46;;;;;;;22.87;9.07;;;;;;;;;;6120100;29;20471;-60
2024/02/27 02:14:52;;;;;;;20.27;9.33;;;;;;;;;;6115310;29;20306;-59
2024/02/27 02:17:56;;;;;;;22.10;9.13;;;;;;;;;;6114937;29;20294;-59
2024/02/27 02:21:01;;;;;;;28.70;9.63;;;;;;;;;;6115475;29;20306;-59
2024/02/27 02:24:07;;;;;;;31.50;9.10;;;;;;;;;;6115109;29;20302;-59
2024/02/27 02:27:14;;;;;;;29.40;9.90;;;;;;;;;;6115430;29;20301;-59
2024/02/27 02:30:17;;;;;;;23.63;8.60;;;;;;;;;;6114777;29;20630;-59
2024/02/27 02:33:22;;;;;;;22.20;8.90;;;;;;;;;;6114586;29;20604;-59
2024/02/27 02:36:27;;;;;;;23.50;8.80;;;;;;;;;;6115519;29;20297;-59
2024/02/27 02:39:31;;;;;;;24.63;8.40;;;;;;;;;;6114474;29;20303;-59
2024/02/27 02:42:36;;;;;;;26.40;9.03;;;;;;;;;;6114197;29;20298;-60
2024/02/27 02:45:40;;;;;;;29.93;9.13;;;;;;;;;;6114610;29;20307;-60
2024/02/27 02:48:45;;;;;;;19.17;7.97;;;;;;;;;;6114448;29;20301;-59
2024/02/27 02:51:50;;;;;;;28.27;9.63;;;;;;;;;;6114875;29;20301;-58
2024/02/27 02:54:54;;;;;;;16.40;7.27;;;;;;;;;;6114533;29;20302;-58
2024/02/27 02:57:58;;;;;;;16.43;6.70;;;;;;;;;;6114661;29;20285;-59
2024/02/27 03:01:02;;;;;;;20.30;7.60;;;;;;;;;;6115072;29;20301;-59
2024/02/27 03:04:06;;;;;;;14.87;6.97;;;;;;;;;;6114521;29;20321;-59
2024/02/27 03:07:11;;;;;;;17.50;6.53;;;;;;;;;;6115112;29;20302;-60
2024/02/27 03:10:16;;;;;;;22.63;7.50;;;;;;;;;;6121247;29;20306;-59
2024/02/27 03:13:20;;;;;;;16.67;6.20;;;;;;;;;;6139952;29;20302;-59
2024/02/27 03:16:23;;;;;;;14.70;6.57;;;;;;;;;;6143299;29;20310;-59
2024/02/27 03:19:27;;;;;;;15.40;6.13;;;;;;;;;;6142395;29;20323;-59
2024/02/27 03:22:33;;;;;;;25.17;7.17;;;;;;;;;;6143368;29;20329;-59
2024/02/27 03:25:37;;;;;;;22.20;6.90;;;;;;;;;;6142317;29;20311;-59
2024/02/27 03:28:41;;;;;;;20.23;5.70;;;;;;;;;;6142239;29;20293;-59
2024/02/27 03:31:44;;;;;;;16.20;5.97;;;;;;;;;;6142976;29;20302;-59
2024/02/27 03:34:48;;;;;;;22.93;6.23;;;;;;;;;;6142659;29;20308;-59
2024/02/27 03:37:54;;;;;;;15.63;6.00;;;;;;;;;;6141708;29;20273;-60
2024/02/27 03:40:58;;;;;;;18.10;5.90;;;;;;;;;;6142607;29;20431;-59
2024/02/27 03:44:03;;;;;;;19.57;5.87;;;;;;;;;;6141886;29;20494;-59
2024/02/27 03:47:06;;;;;;;13.43;5.60;;;;;;;;;;6142292;29;20295;-59
2024/02/27 03:50:11;;;;;;;16.60;6.10;;;;;;;;;;6141758;29;20560;-59
2024/02/27 03:53:16;;;;;;;9.67;5.20;;;;;;;;;;6141812;29;20288;-59
2024/02/27 03:56:20;;;;;;;10.70;5.03;;;;;;;;;;6142431;29;20304;-59
2024/02/27 03:59:23;;;;;;;17.40;6.27;;;;;;;;;;6141575;29;20306;-59
2024/02/27 04:02:27;;;;;;;13.10;5.00;;;;;;;;;;6122909;29;20304;-59
2024/02/27 04:05:31;;;;;;;13.33;6.03;;;;;;;;;;6129820;29;20467;-59
2024/02/27 04:08:36;;;;;;;16.37;5.60;;;;;;;;;;6127212;29;20578;-59
2024/02/27 04:11:41;;;;;;;14.93;5.07;;;;;;;;;;6123182;29;20304;-61
2024/02/27 04:14:45;;;;;;;15.10;5.20;;;;;;;;;;6141271;29;20317;-58
2024/02/27 04:17:49;;;;;;;8.53;4.97;;;;;;;;;;6142092;29;20303;-59
2024/02/27 04:20:53;;;;;;;8.00;5.03;;;;;;;;;;6130869;29;20308;-59
2024/02/27 04:23:58;;;;;;;12.07;5.30;;;;;;;;;;6117122;29;20305;-59
2024/02/27 04:27:02;;;;;;;8.37;4.80;;;;;;;;;;6117413;29;20312;-59
2024/02/27 04:30:07;;;;;;;10.77;4.83;;;;;;;;;;6117423;29;20576;-59
2024/02/27 04:33:11;;;;;;;12.37;5.10;;;;;;;;;;6117864;29;20298;-60
2024/02/27 04:36:15;;;;;;;10.87;4.53;;;;;;;;;;6117616;29;20297;-60
2024/02/27 04:39:21;;;;;;;8.53;4.73;;;;;;;;;;6139514;29;20465;-60
2024/02/27 04:42:24;;;;;;;11.97;4.87;;;;;;;;;;6141391;29;20313;-60
2024/02/27 04:45:28;;;;;;;11.30;5.43;;;;;;;;;;6140751;29;20294;-60
2024/02/27 04:48:32;;;;;;;9.57;4.57;;;;;;;;;;6141099;29;20301;-60
2024/02/27 04:51:36;;;;;;;8.20;5.10;;;;;;;;;;6140591;29;20565;-60
2024/02/27 04:54:42;;;;;;;11.30;5.70;;;;;;;;;;6140397;29;20600;-60
2024/02/27 04:57:45;;;;;;;11.40;5.43;;;;;;;;;;6141113;29;20316;-60
2024/02/27 05:00:49;;;;;;;11.30;5.33;;;;;;;;;;6140638;29;20302;-60
2024/02/27 05:03:53;;;;;;;9.80;5.37;;;;;;;;;;6140523;29;20469;-60
2024/02/27 05:06:59;;;;;;;10.77;5.07;;;;;;;;;;6140245;29;20373;-60
2024/02/27 05:10:05;;;;;;;11.23;5.57;;;;;;;;;;6140179;29;20300;-60
2024/02/27 05:13:09;;;;;;;11.10;5.37;;;;;;;;;;6121633;29;20305;-60
2024/02/27 05:16:13;;;;;;;8.67;5.40;;;;;;;;;;6116755;29;20301;-60
2024/02/27 05:19:17;;;;;;;13.53;5.57;;;;;;;;;;6116530;29;20306;-60
2024/02/27 05:22:20;;;;;;;11.63;5.43;;;;;;;;;;6117129;29;20367;-60
2024/02/27 05:25:26;;;;;;;12.80;5.00;;;;;;;;;;6116683;29;20308;-59
2024/02/27 05:28:30;;;;;;;10.07;4.83;;;;;;;;;;6116958;29;20598;-59
2024/02/27 05:31:36;;;;;;;13.40;4.97;;;;;;;;;;6116201;29;20368;-60
2024/02/27 05:34:40;;;;;;;9.87;4.90;;;;;;;;;;6116012;29;20309;-60
2024/02/27 05:37:44;;;;;;;11.23;5.27;;;;;;;;;;6116312;29;20313;-59
2024/02/27 05:40:49;;;;;;;10.93;5.23;;;;;;;;;;6115849;29;20308;-59
2024/02/27 05:43:54;;;;;;;10.13;4.93;;;;;;;;;;6115398;29;20526;-60
2024/02/27 05:46:58;;;;;;;8.20;4.83;;;;;;;;;;6115354;29;20312;-60
2024/02/27 05:50:02;;;;;;;12.63;5.23;;;;;;;;;;6115497;29;20584;-60
2024/02/27 05:53:06;;;;;;;10.27;5.33;;;;;;;;;;6115892;29;20283;-59
2024/02/27 05:56:12;;;;;;;9.93;5.23;;;;;;;;;;6115553;29;20302;-60
2024/02/27 05:59:16;;;;;;;10.37;4.93;;;;;;;;;;6115090;29;20578;-59
2024/02/27 06:02:19;;;;;;;13.93;5.60;;;;;;;;;;6115648;29;20296;-61
2024/02/27 06:05:23;;;;;;;15.70;5.53;;;;;;;;;;6115103;29;20298;-59
2024/02/27 06:08:27;;;;;;;10.03;5.43;;;;;;;;;;6115966;29;20305;-59
2024/02/27 06:11:32;;;;;;;10.63;5.00;;;;;;;;;;6121388;29;20304;-59
2024/02/27 06:14:36;;;;;;;15.23;6.33;;;;;;;;;;6138753;29;20454;-59
2024/02/27 06:17:40;;;;;;;13.17;5.77;;;;;;;;;;6139679;29;20303;-59
2024/02/27 06:24:06;;;;;;;14.37;5.53;;;;;;;;;;6138807;29;20315;-61
2024/02/27 06:27:12;;;;;;;8.80;4.80;;;;;;;;;;6138539;29;20377;-59
2024/02/27 06:30:16;;;;;;;15.30;5.40;;;;;;;;;;6138744;29;20590;-59
2024/02/27 06:33:20;;;;;;;17.43;5.20;;;;;;;;;;6138932;29;20306;-59
2024/02/27 06:36:25;;;;;;;13.20;5.40;;;;;;;;;;6138301;29;20321;-59
2024/02/27 06:39:28;;;;;;;14.87;5.70;;;;;;;;;;6138208;29;20487;-60
2024/02/27 06:42:36;;;;;;;16.33;5.87;;;;;;;;;;6138820;29;20294;-61
2024/02/27 06:45:41;;;;;;;12.43;5.10;;;;;;;;;;6138056;29;20299;-60
2024/02/27 06:48:45;;;;;;;13.60;5.50;;;;;;;;;;6138173;29;20291;-61
2024/02/27 06:51:49;;;;;;;12.00;5.90;;;;;;;;;;6138024;29;20555;-59
2024/02/27 06:54:53;;;;;;;13.80;5.50;;;;;;;;;;6137703;29;20300;-61
2024/02/27 06:57:58;;;;;;;14.27;6.00;;;;;;;;;;6138500;29;20439;-59
2024/02/27 07:01:03;;;;;;;14.70;5.97;;;;;;;;;;6137845;29;20300;-60
2024/02/27 07:04:07;;;;;;;15.47;6.37;;;;;;;;;;6138471;29;20297;-61
2024/02/27 07:07:10;;;;;;;14.47;7.20;;;;;;;;;;6138086;29;20426;-59
2024/02/27 07:10:15;;;;;;;16.03;6.87;;;;;;;;;;6137871;29;20524;-59
2024/02/27 07:13:20;;;;;;;16.80;7.77;;;;;;;;;;6117737;29;20297;-60
2024/02/27 07:16:24;;;;;;;17.27;7.23;;;;;;;;;;6114162;29;20301;-60
2024/02/27 07:19:28;;;;;;;17.67;7.50;;;;;;;;;;6114312;29;20493;-60
2024/02/27 07:22:32;;;;;;;16.23;7.57;;;;;;;;;;6114944;29;20310;-60
2024/02/27 07:25:36;;;;;;;17.50;8.10;;;;;;;;;;6114061;29;20469;-59
2024/02/27 07:28:44;;;;;;;18.10;8.30;;;;;;;;;;6114344;29;20310;-59
2024/02/27 07:31:48;;;;;;;20.40;8.97;;;;;;;;;;6114266;29;20333;-59
2024/02/27 07:34:51;;;;;;;19.57;8.47;;;;;;;;;;6113312;29;20356;-61
2024/02/27 07:37:55;;;;;;;18.23;8.53;;;;;;;;;;6113846;29;20240;-60
2024/02/27 07:40:59;;;;;;;17.77;7.83;;;;;;;;;;6113162;29;20588;-60
2024/02/27 07:44:05;;;;;;;14.20;7.90;;;;;;;;;;6113920;29;20432;-59
2024/02/27 07:47:09;;;;;;;17.03;8.13;;;;;;;;;;6113545;29;20309;-59
2024/02/27 07:50:13;;;;;;;13.77;7.43;;;;;;;;;;6113663;29;20301;-60
2024/02/27 07:53:17;;;;;;;12.47;7.50;;;;;;;;;;6114282;29;20321;-59
2024/02/27 07:56:21;;;;;;;15.57;8.00;;;;;;;;;;6113351;29;20306;-59
2024/02/27 07:59:26;;;;;;;10.77;7.60;;;;;;;;;;6115442;29;20297;-59
2024/02/27 08:02:31;;;;;;;16.20;8.33;;;;;;;;;;6118305;29;20309;-59
2024/02/27 08:05:34;;;;;;;16.30;7.77;;;;;;;;;;6118308;29;20297;-59
2024/02/27 08:08:39;;;;;;;17.07;7.90;;;;;;;;;;6118830;29;20303;-59
2024/02/27 08:11:42;;;;;;;15.73;7.80;;;;;;;;;;6125923;29;20301;-60
2024/02/27 08:14:47;;;;;;;14.63;7.50;;;;;;;;;;6141508;29;20296;-60
2024/02/27 08:17:51;;;;;;;13.43;7.80;;;;;;;;;;6141759;29;20310;-60
2024/02/27 08:20:55;;;;;;;16.70;7.67;;;;;;;;;;6141473;29;20308;-59
2024/02/27 08:24:02;;;;;;;16.60;8.53;;;;;;;;;;6142336;29;20301;-60
2024/02/27 08:27:06;;;;;;;13.17;7.43;;;;;;;;;;6141243;29;20300;-60
2024/02/27 08:30:12;;;;;;;18.13;8.30;;;;;;;;;;6141448;29;20427;-59
2024/02/27 08:33:16;;;;;;;14.87;7.70;;;;;;;;;;6141680;29;20301;-60
2024/02/27 08:36:20;;;;;;;17.13;8.07;;;;;;;;;;6141221;29;20304;-60
2024/02/27 08:39:24;;;;;;;14.37;7.87;;;;;;;;;;6140522;29;20314;-59
2024/02/27 08:42:28;;;;;;;16.93;8.00;;;;;;;;;;6141517;29;20290;-59
2024/02/27 08:45:33;;;;;;;17.93;8.33;;;;;;;;;;6140630;29;20310;-59
2024/02/27 08:48:38;;;;;;;17.23;8.93;;;;;;;;;;6141397;29;20305;-61
2024/02/27 08:51:42;;;;;;;16.67;8.47;;;;;;;;;;6141278;29;20330;-61
2024/02/27 08:54:46;;;;;;;15.17;8.07;;;;;;;;;;6140958;29;20469;-61
2024/02/27 08:57:50;;;;;;;18.53;7.83;;;;;;;;;;6141212;29;20299;-59
2024/02/27 09:00:56;;;;;;;19.67;9.37;;;;;;;;;;6140365;29;20593;-60
2024/02/27 09:04:00;;;;;;;17.53;8.97;;;;;;;;;;6140885;29;20305;-60
2024/02/27 09:07:04;;;;;;;16.80;8.70;;;;;;;;;;6140352;29;20593;-59
2024/02/27 09:10:09;;;;;;;19.57;9.50;;;;;;;;;;6139610;29;20584;-59
2024/02/27 09:13:13;;;;;;;17.73;8.53;;;;;;;;;;6120603;29;20311;-61
2024/02/27 09:16:18;;;;;;;17.60;8.67;;;;;;;;;;6116582;29;20310;-60
2024/02/27 09:19:25;;;;;;;20.37;9.27;;;;;;;;;;6116516;29;20306;-59
2024/02/27 09:22:31;;;;;;;20.70;8.70;;;;;;;;;;6117189;29;20598;-60
2024/02/27 09:25:34;;;;;;;15.90;8.13;;;;;;;;;;6116324;29;20298;-60
2024/02/27 09:28:39;;;;;;;14.50;8.07;;;;;;;;;;6116839;29;20316;-60
2024/02/27 09:31:47;;;;;;;14.43;7.80;;;;;;;;;;6115982;29;20314;-60
2024/02/27 09:34:51;;;;;;;17.27;8.00;;;;;;;;;;6115788;29;20322;-61
2024/02/27 09:37:55;;;;;;;14.67;6.97;;;;;;;;;;6115843;29;20282;-59
2024/02/27 09:41:02;;;;;;;14.07;7.10;;;;;;;;;;6099442;29;20301;-60
2024/02/27 09:44:07;;;;;;;20.03;7.80;;;;;;;;;;6116337;29;20246;-61
2024/02/27 09:47:13;;;;;;;20.13;8.30;;;;;;;;;;6115290;29;20317;-61
2024/02/27 09:50:19;;;;;;;13.53;6.80;;;;;;;;;;6115504;29;20463;-60
2024/02/27 09:53:23;;;;;;;16.07;7.20;;;;;;;;;;6116120;29;20553;-61
2024/02/27 09:56:28;;;;;;;12.23;6.93;;;;;;;;;;6115627;29;20305;-60
2024/02/27 09:59:32;;;;;;;11.83;7.00;;;;;;;;;;6115491;29;20375;-59
2024/02/27 10:02:38;;;;;;;14.97;7.43;;;;;;;;;;6116086;29;20309;-61
2024/02/27 10:05:42;;;;;;;16.97;6.90;;;;;;;;;;6115422;29;20306;-59
2024/02/27 10:08:48;;;;;;;12.57;6.73;;;;;;;;;;6115562;29;20462;-61
2024/02/27 10:11:52;;;;;;;15.67;7.57;;;;;;;;;;6124235;29;20305;-60
2024/02/27 10:14:56;;;;;;;9.77;5.90;;;;;;;;;;6139089;29;20294;-59
2024/02/27 10:18:01;;;;;;;13.77;7.07;;;;;;;;;;6139430;29;20309;-63
2024/02/27 10:21:08;;;;;;;13.83;6.53;;;;;;;;;;6138406;29;20349;-59
2024/02/27 10:24:20;;;;;;;14.00;6.53;;;;;;;;;;6138137;29;20303;-60
2024/02/27 10:27:24;;;;;;;14.47;6.77;;;;;;;;;;6139688;29;20605;-61
2024/02/27 10:30:28;;;;;;;14.73;7.30;;;;;;;;;;6138731;29;20301;-60
2024/02/27 10:33:34;;;;;;;9.63;6.30;;;;;;;;;;6139823;29;20302;-59
2024/02/27 10:36:38;;;;;;;13.87;7.10;;;;;;;;;;6138899;29;20381;-60
2024/02/27 10:39:43;;;;;;;11.30;6.90;;;;;;;;;;6139072;29;20575;-59
2024/02/27 10:42:47;;;;;;;13.30;7.70;;;;;;;;;;6139102;29;20295;-60
2024/02/27 10:45:51;;;;;;;15.27;7.47;;;;;;;;;;6138344;29;20313;-60
2024/02/27 10:48:57;;;;;;;11.00;7.67;;;;;;;;;;6138614;29;20303;-60
2024/02/27 10:52:02;;;;;;;11.60;7.70;;;;;;;;;;6138237;29;20621;-60
2024/02/27 10:55:07;;;;;;;11.57;8.00;;;;;;;;;;6137980;29;20606;-60
2024/02/27 10:58:11;;;;;;;9.47;6.77;;;;;;;;;;6138830;29;20302;-60
2024/02/27 11:01:16;;;;;;;11.77;7.50;;;;;;;;;;6138186;29;20305;-60
2024/02/27 11:04:23;;;;;;;10.83;7.30;;;;;;;;;;6137973;29;20301;-61
2024/02/27 11:07:27;;;;;;;11.47;7.40;;;;;;;;;;6138791;29;20310;-62
2024/02/27 11:10:31;;;;;;;9.13;7.27;;;;;;;;;;6139064;29;20300;-60
2024/02/27 11:13:37;;;;;;;11.13;7.40;;;;;;;;;;6116007;29;20297;-59
2024/02/27 11:16:45;;;;;;;9.03;7.10;;;;;;;;;;6113851;29;20334;-59
2024/02/27 11:19:51;;;;;;;12.37;7.57;;;;;;;;;;6114179;29;20302;-59
2024/02/27 11:22:56;;;;;;;12.77;8.10;;;;;;;;;;6113770;29;20273;-60
2024/02/27 11:26:00;;;;;;;9.30;6.80;;;;;;;;;;6114228;29;20358;-60
2024/02/27 11:29:05;;;;;;;12.50;7.27;;;;;;;;;;6114308;29;20251;-60
2024/02/27 11:32:09;;;;;;;12.50;7.13;;;;;;;;;;6114068;29;20322;-60
2024/02/27 11:35:16;;;;;;;9.43;7.07;;;;;;;;;;6117691;29;20293;-59
2024/02/27 11:38:20;;;;;;;8.27;6.30;;;;;;;;;;6118975;29;20461;-60
2024/02/27 11:41:24;;;;;;;10.50;6.57;;;;;;;;;;6118654;29;20544;-60
2024/02/27 11:44:28;;;;;;;9.57;6.37;;;;;;;;;;6118363;29;20332;-60
2024/02/27 11:47:37;;;;;;;8.03;6.03;;;;;;;;;;6119331;29;20382;-59
2024/02/27 11:50:46;;;;;;;9.40;6.10;;;;;;;;;;6118137;29;20478;-60
2024/02/27 11:53:50;;;;;;;6.67;5.80;;;;;;;;;;6118910;29;20579;-60
2024/02/27 11:56:54;;;;;;;7.03;6.10;;;;;;;;;;6118630;29;20409;-60
2024/02/27 12:00:06;;;;;;;7.20;5.60;;;;;;;;;;6118523;29;20302;-60
2024/02/27 12:03:11;;;;;;;7.03;5.57;;;;;;;;;;6118746;29;20297;-60
2024/02/27 12:06:16;;;;;;;8.57;6.23;;;;;;;;;;6118245;29;20303;-60
2024/02/27 12:09:25;;;;;;;8.77;5.53;;;;;;;;;;6118041;29;20302;-60
2024/02/27 12:12:29;;;;;;;8.27;5.47;;;;;;;;;;6132291;29;20310;-59
2024/02/27 12:15:33;;;;;;;7.63;5.27;;;;;;;;;;6141302;29;20481;-59
2024/02/27 12:18:37;;;;;;;5.20;4.90;;;;;;;;;;6141607;29;20366;-59
2024/02/27 12:21:43;;;;;;;5.27;4.87;;;;;;;;;;6141245;29;20586;-59
2024/02/27 12:24:47;;;;;;;6.47;5.60;;;;;;;;;;6141236;29;20298;-59
2024/02/27 12:27:54;;;;;;;6.03;5.63;;;;;;;;;;6141792;29;20400;-59
2024/02/27 12:30:59;;;;;;;6.13;5.50;;;;;;;;;;6141337;29;20294;-60
2024/02/27 12:34:05;;;;;;;6.60;6.00;;;;;;;;;;6141666;29;20294;-60
2024/02/27 12:37:11;;;;;;;6.30;5.70;;;;;;;;;;6141151;29;20305;-60
2024/02/27 12:40:16;;;;;;;5.67;5.17;;;;;;;;;;6141282;29;20408;-60
2024/02/27 12:43:20;;;;;;;5.23;4.90;;;;;;;;;;6141816;29;20306;-60
2024/02/27 12:46:24;;;;;;;8.20;5.80;;;;;;;;;;6140387;29;20310;-61
2024/02/27 12:49:31;;;;;;;5.90;5.40;;;;;;;;;;6141159;29;20322;-61
2024/02/27 12:52:36;;;;;;;7.70;5.60;;;;;;;;;;6141651;29;20306;-60
2024/02/27 12:55:40;;;;;;;6.37;5.77;;;;;;;;;;6141087;29;20306;-60
2024/02/27 12:58:50;;;;;;;6.07;5.57;;;;;;;;;;6141342;29;20321;-60
2024/02/27 13:01:55;;;;;;;5.90;5.23;;;;;;;;;;6139889;29;20338;-60
2024/02/27 13:04:59;;;;;;;6.20;5.70;;;;;;;;;;6140325;29;20302;-60
2024/02/27 13:08:05;;;;;;;5.97;5.50;;;;;;;;;;6139517;29;20262;-60
2024/02/27 13:11:09;;;;;;;6.87;6.27;;;;;;;;;;6099944;29;20289;-60
2024/02/27 13:14:14;;;;;;;6.43;5.83;;;;;;;;;;6140536;29;20301;-60
2024/02/27 13:17:18;;;;;;;5.50;5.10;;;;;;;;;;6140696;29;20537;-60
2024/02/27 13:20:22;;;;;;;6.47;5.77;;;;;;;;;;6140035;29;20369;-60
2024/02/27 13:23:27;;;;;;;5.97;5.47;;;;;;;;;;6140698;29;20306;-60
2024/02/27 13:26:31;;;;;;;6.03;5.53;;;;;;;;;;6140001;29;20302;-59
2024/02/27 13:29:35;;;;;;;7.33;5.40;;;;;;;;;;6140305;29;20297;-60
2024/02/27 13:32:39;;;;;;;5.77;5.27;;;;;;;;;;6140343;29;20309;-60
2024/02/27 13:35:43;;;;;;;7.53;5.90;;;;;;;;;;6139906;29;20306;-60
2024/02/27 13:38:48;;;;;;;6.10;5.60;;;;;;;;;;6140202;29;20603;-61
2024/02/27 13:41:52;;;;;;;5.90;5.33;;;;;;;;;;6139709;29;20441;-59
2024/02/27 13:44:56;;;;;;;5.73;5.33;;;;;;;;;;6139569;29;20290;-59
2024/02/27 13:48:00;;;;;;;6.00;5.60;;;;;;;;;;6140210;29;20310;-59
2024/02/27 13:51:05;;;;;;;5.60;5.20;;;;;;;;;;6139163;29;20309;-61
2024/02/27 13:54:10;;;;;;;6.73;5.53;;;;;;;;;;6139779;29;20302;-59
2024/02/27 13:57:14;;;;;;;5.80;5.33;;;;;;;;;;6138954;29;20320;-59
2024/02/27 14:00:18;;;;;;;5.20;4.90;;;;;;;;;;6138853;29;20552;-59
2024/02/27 14:03:22;;;;;;;6.40;5.60;;;;;;;;;;6139586;29;20468;-60
2024/02/27 14:06:26;;;;;;;6.20;5.60;;;;;;;;;;6139322;29;20302;-60
2024/02/27 14:09:32;;;;;;;5.60;5.20;;;;;;;;;;6139461;29;20310;-61
2024/02/27 14:12:36;;;;;;;5.13;4.83;;;;;;;;;;6124481;29;20302;-61
2024/02/27 14:15:40;;;;;;;5.57;5.00;;;;;;;;;;6115003;29;20304;-61
2024/02/27 14:18:43;;;;;;;5.10;4.60;;;;;;;;;;6115840;29;20611;-60
2024/02/27 14:21:48;;;;;;;5.33;5.00;;;;;;;;;;6115879;29;20299;-61
2024/02/27 14:24:53;;;;;;;5.03;4.73;;;;;;;;;;6115242;29;20299;-61
2024/02/27 14:27:57;;;;;;;4.97;4.67;;;;;;;;;;6116295;29;20298;-61
2024/02/27 14:31:01;;;;;;;5.83;5.37;;;;;;;;;;6115140;29;20303;-61
2024/02/27 14:34:04;;;;;;;5.77;5.37;;;;;;;;;;6115630;29;20303;-60
2024/02/27 14:37:09;;;;;;;5.30;4.90;;;;;;;;;;6114876;29;20303;-60
2024/02/27 14:40:14;;;;;;;8.33;5.70;;;;;;;;;;6114450;29;20302;-60
2024/02/27 14:43:18;;;;;;;5.37;4.97;;;;;;;;;;6115200;29;20303;-60
2024/02/27 14:46:23;;;;;;;6.23;5.47;;;;;;;;;;6114546;29;20305;-60
2024/02/27 14:49:27;;;;;;;7.47;5.33;;;;;;;;;;6114676;29;20512;-59
2024/02/27 14:52:31;;;;;;;6.53;5.80;;;;;;;;;;6114710;29;20595;-61
2024/02/27 14:55:36;;;;;;;6.13;5.63;;;;;;;;;;6114680;29;20345;-61
2024/02/27 14:58:44;;;;;;;7.33;6.00;;;;;;;;;;6115024;29;20307;-60
2024/02/27 15:01:48;;;;;;;7.43;5.90;;;;;;;;;;6114390;29;20306;-59
2024/02/27 15:05:03;;;;;;;9.83;6.40;;;;;;;;;;6113473;29;20299;-60
2024/02/27 15:08:07;;;;;;;9.77;6.73;;;;;;;;;;6113862;29;20245;-60
2024/02/27 15:11:12;;;;;;;7.20;6.30;;;;;;;;;;6117771;29;20365;-60
2024/02/27 15:14:16;;;;;;;7.60;6.77;;;;;;;;;;6137657;29;20335;-60
2024/02/27 15:17:20;;;;;;;6.90;5.93;;;;;;;;;;6138030;29;20325;-60
2024/02/27 15:20:24;;;;;;;8.53;6.60;;;;;;;;;;6137338;29;20321;-60
2024/02/27 15:23:28;;;;;;;12.77;6.67;;;;;;;;;;6138747;29;20320;-61
2024/02/27 15:26:33;;;;;;;6.97;6.27;;;;;;;;;;6137594;29;20298;-61
2024/02/27 15:29:37;;;;;;;11.73;6.70;;;;;;;;;;6137578;29;20613;-59
2024/02/27 15:32:41;;;;;;;11.00;7.10;;;;;;;;;;6138445;29;20412;-59
2024/02/27 15:35:45;;;;;;;13.20;7.47;;;;;;;;;;6137698;29;20290;-59
2024/02/27 15:38:49;;;;;;;15.13;6.50;;;;;;;;;;6137745;29;20503;-60
2024/02/27 15:41:55;;;;;;;9.50;6.47;;;;;;;;;;6137326;29;20297;-60
2024/02/27 15:44:59;;;;;;;8.50;7.23;;;;;;;;;;6137472;29;20297;-60
2024/02/27 15:48:03;;;;;;;10.13;7.30;;;;;;;;;;6138078;29;20291;-60
2024/02/27 15:51:08;;;;;;;6.97;6.27;;;;;;;;;;6137489;29;20301;-60
2024/02/27 15:54:13;;;;;;;14.77;6.50;;;;;;;;;;6137148;29;20301;-61
2024/02/27 15:57:18;;;;;;;10.30;6.80;;;;;;;;;;6137636;29;20305;-60
2024/02/27 16:00:22;;;;;;;8.63;6.63;;;;;;;;;;6137366;29;20309;-60
2024/02/27 16:03:34;;;;;;;9.37;6.50;;;;;;;;;;6137756;29;20322;-60
2024/02/27 16:06:40;;;;;;;7.47;6.77;;;;;;;;;;6137279;29;20305;-60
2024/02/27 16:09:44;;;;;;;11.07;7.53;;;;;;;;;;6137346;29;20290;-61
2024/02/27 16:12:49;;;;;;;7.77;6.97;;;;;;;;;;6121335;29;20304;-61
2024/02/27 16:15:53;;;;;;;9.20;6.63;;;;;;;;;;6112840;29;20469;-60
2024/02/27 16:18:57;;;;;;;10.57;6.57;;;;;;;;;;6114036;29;20319;-61
2024/02/27 16:22:04;;;;;;;8.27;7.00;;;;;;;;;;6117051;29;20302;-60
2024/02/27 16:25:09;;;;;;;8.87;6.80;;;;;;;;;;6117985;29;20311;-61
2024/02/27 16:28:15;;;;;;;12.17;7.50;;;;;;;;;;6118130;29;20486;-60
2024/02/27 16:31:18;;;;;;;7.60;6.80;;;;;;;;;;6117446;29;20303;-59
2024/02/27 16:34:23;;;;;;;13.87;7.17;;;;;;;;;;6117607;29;20521;-59
2024/02/27 16:37:27;;;;;;;7.40;6.70;;;;;;;;;;6118230;29;20302;-59
2024/02/27 16:40:31;;;;;;;7.83;6.43;;;;;;;;;;6117370;29;20319;-59
2024/02/27 16:43:36;;;;;;;9.33;6.80;;;;;;;;;;6116391;29;20322;-60
2024/02/27 16:46:40;;;;;;;11.00;7.07;;;;;;;;;;6117222;29;20600;-61
2024/02/27 16:49:44;;;;;;;8.40;7.70;;;;;;;;;;6117746;29;20299;-61
2024/02/27 16:52:48;;;;;;;9.90;7.03;;;;;;;;;;6118164;29;20302;-61
2024/02/27 16:55:52;;;;;;;7.80;7.00;;;;;;;;;;6116634;29;20306;-62
2024/02/27 16:58:59;;;;;;;11.03;7.33;;;;;;;;;;6117711;29;20551;-60
2024/02/27 17:02:03;;;;;;;8.07;7.17;;;;;;;;;;6117159;29;20620;-61
2024/02/27 17:05:07;;;;;;;12.83;8.23;;;;;;;;;;6117288;29;20290;-61
2024/02/27 17:08:11;;;;;;;19.93;8.67;;;;;;;;;;6116112;29;20454;-60
2024/02/27 17:11:15;;;;;;;14.87;7.87;;;;;;;;;;6120986;29;20299;-59
2024/02/27 17:14:20;;;;;;;11.00;7.10;;;;;;;;;;6140702;29;20315;-60
2024/02/27 17:17:24;;;;;;;11.77;7.10;;;;;;;;;;6141094;29;20298;-62
2024/02/27 17:20:28;;;;;;;9.60;7.67;;;;;;;;;;6140486;29;20302;-60
2024/02/27 17:23:32;;;;;;;14.77;7.67;;;;;;;;;;6140636;29;20569;-61
2024/02/27 17:26:36;;;;;;;15.97;8.57;;;;;;;;;;6140603;29;20301;-61
2024/02/27 17:29:41;;;;;;;15.47;8.17;;;;;;;;;;6140448;29;20578;-60
2024/02/27 17:32:45;;;;;;;8.30;7.47;;;;;;;;;;6139771;29;20429;-61
2024/02/27 17:35:49;;;;;;;10.03;6.93;;;;;;;;;;6140086;29;20302;-61
2024/02/27 17:38:53;;;;;;;9.97;7.03;;;;;;;;;;6139954;29;20330;-61
2024/02/27 17:41:57;;;;;;;8.20;7.17;;;;;;;;;;6139579;29;20310;-61
2024/02/27 17:45:02;;;;;;;8.27;6.80;;;;;;;;;;6139631;29;20293;-60
2024/02/27 17:48:12;;;;;;;9.53;7.57;;;;;;;;;;6139906;29;20302;-61
2024/02/27 17:51:17;;;;;;;8.63;7.27;;;;;;;;;;6139799;29;20306;-60
2024/02/27 17:54:21;;;;;;;7.73;7.03;;;;;;;;;;6139629;29;20298;-60
2024/02/27 17:57:25;;;;;;;9.93;6.80;;;;;;;;;;6140083;29;20301;-60
2024/02/27 18:00:30;;;;;;;10.53;6.83;;;;;;;;;;6139806;29;20310;-59
2024/02/27 18:03:34;;;;;;;7.57;6.77;;;;;;;;;;6139772;29;20305;-61
2024/02/27 18:06:38;;;;;;;8.17;6.97;;;;;;;;;;6139118;29;20297;-59
2024/02/27 18:09:42;;;;;;;7.77;6.83;;;;;;;;;;6138996;29;20310;-60
2024/02/27 18:12:47;;;;;;;8.73;7.37;;;;;;;;;;6123479;29;20314;-60
2024/02/27 18:15:52;;;;;;;11.90;7.57;;;;;;;;;;6115638;29;20322;-60
2024/02/27 18:18:56;;;;;;;11.77;7.67;;;;;;;;;;6115912;29;20571;-60